createdAt,value
2022-08-23T00:05:40.452Z,26.8
2022-08-23T00:11:05.001Z,26.7
2022-08-23T00:16:56.891Z,26.8
2022-08-23T00:22:44.247Z,26.8
2022-08-23T00:28:28.932Z,26.8
2022-08-23T00:34:05.034Z,26.7
2022-08-23T00:40:09.493Z,26.7
2022-08-23T00:45:31.064Z,26.7
2022-08-23T00:51:09.328Z,26.7
2022-08-23T00:56:40.155Z,26.8
2022-08-23T01:02:05.110Z,26.8
2022-08-23T01:07:44.922Z,26.7
2022-08-23T01:13:21.592Z,26.7
2022-08-23T01:18:57.998Z,26.7
2022-08-23T01:25:22.852Z,26.6
2022-08-23T01:30:59.839Z,26.6
2022-08-23T01:36:46.651Z,26.6
2022-08-23T01:42:25.626Z,26.5
2022-08-23T01:48:08.051Z,26.5
2022-08-23T01:53:37.118Z,26.4
2022-08-23T01:59:26.830Z,26.4
2022-08-23T02:04:54.665Z,26.4
2022-08-23T02:10:40.099Z,26.4
2022-08-23T02:16:19.629Z,26.3
2022-08-23T02:22:08.824Z,26.3
2022-08-23T02:27:46.389Z,26.3
2022-08-23T02:33:34.371Z,26.3
2022-08-23T02:39:17.400Z,26.3
2022-08-23T02:45:02.288Z,26.3
2022-08-23T02:49:52.275Z,26.3
2022-08-23T02:55:30.898Z,26.2
2022-08-23T03:01:15.023Z,26.2
2022-08-23T03:07:13.983Z,26.2
2022-08-23T03:12:51.207Z,26.2
2022-08-23T03:18:29.277Z,26.1
2022-08-23T03:23:56.320Z,26.1
2022-08-23T03:29:40.272Z,26.1
2022-08-23T03:35:34.570Z,26.1
2022-08-23T03:41:23.541Z,25.9
2022-08-23T03:47:08.458Z,26
2022-08-23T03:52:49.122Z,26.1
2022-08-23T03:58:27.139Z,26.1
2022-08-23T04:04:03.938Z,26.1
2022-08-23T04:09:55.627Z,26.1
2022-08-23T04:15:43.365Z,26.1
2022-08-23T04:21:21.343Z,26.1
2022-08-23T04:27:26.251Z,26.1
2022-08-23T04:33:40.093Z,26.1
2022-08-23T04:39:30.504Z,26.1
2022-08-23T04:45:13.563Z,26.1
2022-08-23T04:50:50.251Z,26.1
2022-08-23T04:56:34.203Z,26.1
2022-08-23T05:02:14.338Z,26.1
2022-08-23T05:07:59.501Z,26.1
2022-08-23T05:13:38.594Z,26.1
2022-08-23T05:19:20.977Z,26.1
2022-08-23T05:25:19.696Z,26.1
2022-08-23T05:31:12.873Z,26.1
2022-08-23T05:36:55.858Z,26.1
2022-08-23T05:43:00.966Z,26.1
2022-08-23T05:48:57.473Z,26.1
2022-08-23T05:54:45.847Z,26.1
2022-08-23T06:00:28.403Z,26.1
2022-08-23T06:06:19.771Z,26.1
2022-08-23T06:12:04.226Z,26.1
2022-08-23T06:17:53.726Z,26.1
2022-08-23T06:23:14.859Z,29.9
2022-08-23T06:29:07.567Z,30.9
2022-08-23T06:34:50.307Z,30.2
2022-08-23T06:41:07.337Z,34.5
2022-08-23T06:47:22.997Z,35.6
2022-08-23T06:53:27.050Z,36.6
2022-08-23T06:59:10.092Z,37.5
2022-08-23T07:05:25.311Z,38
2022-08-23T07:11:28.428Z,38.7
2022-08-23T07:17:12.147Z,38.6
2022-08-23T07:22:55.182Z,39.6
2022-08-23T07:28:34.123Z,40.6
2022-08-23T07:34:20.241Z,40.9
2022-08-23T07:39:58.537Z,42
2022-08-23T07:45:51.666Z,42.9
2022-08-23T07:52:03.787Z,42.9
2022-08-23T07:57:58.528Z,42.8
2022-08-23T08:03:35.978Z,42.8
2022-08-23T08:09:42.318Z,43.2
2022-08-23T08:15:19.190Z,43
2022-08-23T08:20:43.159Z,43
2022-08-23T08:26:08.802Z,43.1
2022-08-23T08:31:24.122Z,43.1
2022-08-23T08:37:07.338Z,43.1
2022-08-23T08:42:54.118Z,43.1
2022-08-23T08:48:46.539Z,43.4
2022-08-23T08:54:28.184Z,43.8
2022-08-23T09:00:14.642Z,43.8
2022-08-23T09:06:16.183Z,43.6
2022-08-23T09:11:59.325Z,43.5
2022-08-23T09:17:43.864Z,43.6
2022-08-23T09:23:25.661Z,43.9
2022-08-23T09:29:11.622Z,44.2
2022-08-23T09:34:52.434Z,44.9
2022-08-23T09:40:23.082Z,46.6
2022-08-23T09:45:53.473Z,47.8
2022-08-23T09:51:42.820Z,48.8
2022-08-23T09:57:29.676Z,49.7
2022-08-23T10:03:10.141Z,50.3
2022-08-23T10:08:46.664Z,50.5
2022-08-23T10:14:31.201Z,51.1
2022-08-23T10:19:53.171Z,51.1
2022-08-23T10:25:36.891Z,51.5
2022-08-23T10:30:59.352Z,51.7
2022-08-23T10:42:16.251Z,52.4
2022-08-23T10:47:56.420Z,52.8
2022-08-23T10:53:47.021Z,53.6
2022-08-23T10:59:37.151Z,53.4
2022-08-23T11:05:15.830Z,53.5
2022-08-23T11:11:12.798Z,53.7
2022-08-23T11:16:52.558Z,54
2022-08-23T11:22:30.147Z,54.3
2022-08-23T11:28:12.014Z,54.6
2022-08-23T11:33:57.767Z,54.8
2022-08-23T11:39:45.227Z,54.9
2022-08-23T11:45:07.077Z,55.1
2022-08-23T11:50:45.458Z,55.3
2022-08-23T11:56:24.014Z,55.5
2022-08-23T12:01:56.065Z,55.8
2022-08-23T12:07:28.459Z,55.9
2022-08-23T12:13:12.418Z,56.1
2022-08-23T12:19:05.209Z,56.2
2022-08-23T12:24:52.523Z,56.4
2022-08-23T12:30:34.150Z,56.5
2022-08-23T12:36:05.111Z,56.5
2022-08-23T12:41:46.137Z,56.4
2022-08-23T12:47:15.418Z,56.3
2022-08-23T12:53:02.346Z,56.2
2022-08-23T12:58:51.199Z,55.9
2022-08-23T13:04:50.607Z,55.6
2022-08-23T13:10:29.953Z,55.5
2022-08-23T13:15:44.188Z,55.3
2022-08-23T13:21:07.232Z,55.1
2022-08-23T13:27:19.664Z,54.8
2022-08-23T13:32:44.419Z,54.4
2022-08-23T13:38:42.531Z,54.1
2022-08-23T13:44:35.737Z,53.7
2022-08-23T13:50:27.610Z,53
2022-08-23T13:57:04.136Z,52.3
2022-08-23T14:02:52.212Z,51.8
2022-08-23T14:08:30.576Z,49.5
2022-08-23T14:14:09.304Z,47
2022-08-23T14:22:11.076Z,44.6
2022-08-23T14:27:59.256Z,42.8
2022-08-23T14:33:45.674Z,41.8
2022-08-23T14:40:25.442Z,40.9
2022-08-23T14:46:10.609Z,40.1
2022-08-23T14:51:51.167Z,39.4
2022-08-23T14:57:45.460Z,38.9
2022-08-23T15:03:11.705Z,38.4
2022-08-23T15:09:13.529Z,38.1
2022-08-23T15:17:04.466Z,37.5
2022-08-23T15:23:01.529Z,37.2
2022-08-23T15:28:45.829Z,36.9
2022-08-23T15:34:40.053Z,36.8
2022-08-23T15:40:16.297Z,36.6
2022-08-23T15:45:49.593Z,36.4
2022-08-23T15:51:17.883Z,36.4
2022-08-23T15:56:58.376Z,36.3
2022-08-23T16:02:57.548Z,36.2
2022-08-23T16:08:50.234Z,36
2022-08-23T16:14:29.481Z,35.8
2022-08-23T16:20:11.205Z,35.1
2022-08-23T16:25:49.187Z,34.4
2022-08-23T16:31:53.932Z,33.9
2022-08-23T16:37:35.930Z,33.4
2022-08-23T16:43:15.790Z,33.1
2022-08-23T16:48:52.830Z,32.7
2022-08-23T16:54:51.738Z,32.4
2022-08-23T17:00:30.245Z,32.2
2022-08-23T17:06:14.683Z,32
2022-08-23T17:11:53.579Z,31.8
2022-08-23T17:17:37.507Z,31.7
2022-08-23T17:23:15.570Z,31.6
2022-08-23T17:28:58.225Z,31.5
2022-08-23T17:34:44.336Z,31.4
2022-08-23T17:40:14.120Z,31.4
2022-08-23T17:45:58.100Z,31.3
2022-08-23T17:51:21.139Z,31.3
2022-08-23T17:57:06.571Z,31.3
2022-08-23T18:02:53.825Z,31.3
2022-08-23T18:08:45.328Z,31.2
2022-08-23T18:14:27.104Z,31.2
2022-08-23T18:20:09.783Z,31.1
2022-08-23T18:25:47.587Z,30.9
2022-08-23T18:31:34.942Z,30.8
2022-08-23T18:37:26.051Z,30.6
2022-08-23T18:43:17.304Z,30.5
2022-08-23T18:49:09.710Z,30.4
2022-08-23T18:55:03.702Z,30.4
2022-08-23T19:00:41.373Z,30.3
2022-08-23T19:06:31.111Z,30.3
2022-08-23T19:11:42.789Z,30.1
2022-08-23T19:17:27.824Z,30
2022-08-23T19:23:04.756Z,29.9
2022-08-23T19:28:11.043Z,29.9
2022-08-23T19:33:54.516Z,29.8
2022-08-23T19:40:11.556Z,29.8
2022-08-23T19:45:39.939Z,29.8
2022-08-23T19:51:30.288Z,29.8
2022-08-23T19:57:18.245Z,29.8
2022-08-23T20:02:25.279Z,29.8
2022-08-23T20:07:47.215Z,29.7
2022-08-23T20:13:26.010Z,29.8
2022-08-23T20:18:48.825Z,29.7
2022-08-23T20:24:48.900Z,29.7
2022-08-23T20:30:55.197Z,29.7
2022-08-23T20:36:02.648Z,29.7
2022-08-23T20:41:33.370Z,29.7
2022-08-23T20:46:50.774Z,29.7
2022-08-23T20:52:18.750Z,29.7
2022-08-23T20:57:48.401Z,29.7
2022-08-23T21:03:26.171Z,29.7
2022-08-23T21:09:16.183Z,29.7
2022-08-23T21:14:50.188Z,29.7
2022-08-23T21:20:34.318Z,29.7
2022-08-23T21:25:57.142Z,29.7
2022-08-23T21:31:43.993Z,29.7
2022-08-23T21:37:21.669Z,29.7
2022-08-23T21:42:48.158Z,29.7
2022-08-23T21:48:13.115Z,29.7
2022-08-23T21:54:02.396Z,29.7
2022-08-23T21:59:50.273Z,29.6
2022-08-23T22:05:32.560Z,29.7
2022-08-23T22:11:29.725Z,29.7
2022-08-23T22:17:01.611Z,29.6
2022-08-23T22:22:26.058Z,29.7
2022-08-23T22:27:51.014Z,29.7
2022-08-23T22:33:13.358Z,29.7
2022-08-23T22:38:52.844Z,29.7
2022-08-23T22:44:32.925Z,29.7
2022-08-23T22:50:20.414Z,29.7
2022-08-23T22:55:56.891Z,29.7
2022-08-23T23:02:04.173Z,29.7
2022-08-23T23:07:45.808Z,29.7
2022-08-23T23:13:08.019Z,29.7
2022-08-23T23:18:30.757Z,29.7
2022-08-23T23:24:06.988Z,29.7
2022-08-23T23:29:47.879Z,29.8
2022-08-23T23:35:33.544Z,29.7
2022-08-23T23:41:13.137Z,29.7
2022-08-23T23:46:48.225Z,29.7
2022-08-23T23:52:27.486Z,29.8
2022-08-23T23:57:49.888Z,29.7
